Unionville, Louisiana
Current Conditions -  °F | °C
As of 2:15 AM on Thursday 29 Jan 2015 (Local Time) from KRSN Reporting Station
Clear Clear  
Wind Chill: 12°   Ceiling: Unl
Heat Index: 12°   Visibility: 10mi
Dew Point:   Wind: 10mph
Humidity: 77%   Direction: 200°SSW
Pressure: 30.16"   Gusts: NA
Location:  32.6988°N, 92.6981°W
Report Text: KRSN 290815Z AUTO 20009KT 10SM CLR 12/08 A3016 RMK AO2 T01210081
Loading
Personal Weather Stations






























Interactive Weather Map New forecast layout! Learn more

10-Day Weather Forecast

Advertisements
Track Severe Weather on mobile